Lady Mary — WCY4834 — position and weather

sailwx.info

Track history (hours):
 
Tides and Currents Weather Stations Pressure Air Temp Water Temp Dewpoint Dewpoint Depression Visibility Wind Speed Wind Dir Waves Ship Positions

Lady Mary

Owner: BLACKMAN, JOHN H, SEATTLE, WA. More information available from US FCC via Universal Licensing System and Coast Guard Vessel Documentation Center.

Last reported at 2015-May-25 00:21 UTC. Time now 2015-May-25 01:25 UTC.
Position N 47°40' W 122°13'.

Length 26 m.

Type: Passenger vessel. MMSI: 367013060.

Date/timePositionNaut miles runAvg speedWind from/ knotsBaromVisibWave heightAir tempDewpointWater temp
2015-May-25 00:21N 47°40' W 122°13'1 1.6
2015-May-24 23:53N 47°40' W 122°13'3 7.8
2015-May-24 23:33N 47°38' W 122°16'1 7.8
2015-May-24 23:28N 47°38' W 122°16'4 3.7
2015-May-24 22:30N 47°40' W 122°13'0 0.2
2015-May-24 21:58N 47°40' W 122°13'3 7.6
2015-May-24 21:32N 47°38' W 122°16'1 8.2
2015-May-24 21:27N 47°38' W 122°16'4 3.6
2015-May-24 20:27N 47°40' W 122°13'0 0.0
2015-May-24 19:33N 47°40' W 122°13'0 0.0
2015-May-24 18:22N 47°40' W 122°13'0 0.0
2015-May-24 17:23N 47°40' W 122°13'0 0.0
2015-May-24 16:29N 47°40' W 122°13'0 0.0
2015-May-24 15:18N 47°40' W 122°13'0 0.0
2015-May-24 14:19N 47°40' W 122°13'0 0.0
2015-May-24 13:31N 47°40' W 122°13'0 0.0
2015-May-24 13:19N 47°40' W 122°13'0 0.0
2015-May-24 12:32N 47°40' W 122°13'0 0.0
2015-May-24 11:33N 47°40' W 122°13'0 0.0
2015-May-24 10:21N 47°40' W 122°13'0 0.0
2015-May-24 09:28N 47°40' W 122°13'0 0.0
2015-May-24 08:23N 47°40' W 122°13'0 0.0
2015-May-24 07:29N 47°40' W 122°13'1 1.8
2015-May-24 06:42N 47°40' W 122°14'2 8.3
2015-May-24 06:29N 47°39' W 122°17'0 7.1
2015-May-24 06:27N 47°39' W 122°17'2 5.8
2015-May-24 06:07N 47°39' W 122°20'2 1.1
2015-May-24 04:23N 47°39' W 122°17'0 0.0
2015-May-24 04:22N 47°39' W 122°17'4 4.6
2015-May-24 03:33N 47°36' W 122°14'0 4.8
2015-May-24 03:32N 47°36' W 122°14'3 2.8
2015-May-24 02:33N 47°39' W 122°15'0 5.3
2015-May-24 02:31N 47°39' W 122°15'4 3.8
2015-May-24 01:34N 47°38' W 122°20'0 4.0
2015-May-24 01:31N 47°38' W 122°20'1 0.6
2015-May-24 00:23N 47°38' W 122°20'0 0.0
2015-May-23 23:33N 47°38' W 122°20'0 2.5
2015-May-23 23:31N 47°38' W 122°20'6 6.0
2015-May-23 22:33N 47°40' W 122°13'0 0.1
2015-May-23 22:05N 47°40' W 122°13'3 6.6
2015-May-23 21:33N 47°38' W 122°16'1 8.4
2015-May-23 21:24N 47°37' W 122°15'4 3.3
2015-May-23 20:14N 47°40' W 122°13'0 0.0
2015-May-23 18:33N 47°40' W 122°13'0 0.0
2015-May-23 17:22N 47°40' W 122°13'0 0.0
2015-May-23 16:29N 47°40' W 122°13'0 0.0
2015-May-23 15:12N 47°40' W 122°13'0 0.0
2015-May-23 14:12N 47°40' W 122°13'0 0.0
2015-May-23 13:31N 47°40' W 122°13'0 0.0
2015-May-23 12:31N 47°40' W 122°13'0 0.0
2015-May-23 11:44N 47°40' W 122°13'0 0.0
2015-May-23 11:26N 47°40' W 122°13'0 0.0
2015-May-23 10:33N 47°40' W 122°13'0 0.0
2015-May-23 09:33N 47°40' W 122°13'0 0.0
2015-May-23 08:22N 47°40' W 122°13'0 0.0
2015-May-23 06:24N 47°40' W 122°13'0 0.0
2015-May-23 05:30N 47°40' W 122°13'0 0.0
2015-May-23 04:19N 47°40' W 122°13'0 0.0
2015-May-23 03:14N 47°40' W 122°13'0 0.0
2015-May-23 01:33N 47°40' W 122°13'0 0.0
2015-May-23 00:33N 47°40' W 122°13'0 0.0
2015-May-22 22:20N 47°40' W 122°13'0 0.0
2015-May-22 21:38N 47°40' W 122°13'0 1.3
2015-May-22 21:33N 47°40' W 122°13'0 0.1
2015-May-22 20:33N 47°40' W 122°13'0 0.0
2015-May-22 19:28N 47°40' W 122°13'0 0.0
2015-May-22 18:37N 47°40' W 122°13'0 0.0
2015-May-22 18:28N 47°40' W 122°13'0 0.0
2015-May-22 17:26N 47°40' W 122°13'0 0.0
2015-May-22 16:30N 47°40' W 122°13'0 0.0
2015-May-22 15:30N 47°40' W 122°13'0 0.0
2015-May-22 14:31N 47°40' W 122°13'0 0.0
2015-May-22 13:58N 47°40' W 122°13'0 0.0
2015-May-22 13:08N 47°40' W 122°13'0 0.0
2015-May-22 12:32N 47°40' W 122°13'0 0.0
2015-May-22 11:27N 47°40' W 122°13'0 0.0
2015-May-22 10:28N 47°40' W 122°13'0 0.0
2015-May-22 09:28N 47°40' W 122°13'0 0.0
2015-May-22 08:32N 47°40' W 122°13'0 0.0
2015-May-22 07:30N 47°40' W 122°13'0 0.0
2015-May-22 06:24N 47°40' W 122°13'0 0.0
2015-May-22 05:25N 47°40' W 122°13'2 2.6
2015-May-22 04:33N 47°39' W 122°15'1 7.3
2015-May-22 04:24N 47°39' W 122°17'2 1.9
2015-May-22 03:33N 47°39' W 122°19'0 0.0
2015-May-22 03:33N 47°39' W 122°19'4 3.8
2015-May-22 02:33N 47°37' W 122°15'010.8
2015-May-22 02:33N 47°37' W 122°15'4 3.0
2015-May-22 01:20N 47°40' W 122°13'0 0.0
2015-May-22 00:27N 47°40' W 122°13'0 0.0
2015-May-21 23:12N 47°40' W 122°13'0 0.9
2015-May-21 22:50N 47°40' W 122°13'3 7.9
2015-May-21 22:30N 47°39' W 122°16'0 6.7
2015-May-21 22:26N 47°39' W 122°17'0 0.5
2015-May-21 21:28N 47°39' W 122°16'2 4.7
2015-May-21 21:00N 47°37' W 122°14'3 5.8
2015-May-21 20:33N 47°39' W 122°13'1 0.6
2015-May-21 18:29N 47°40' W 122°13'0 0.0
2015-May-21 17:18N 47°40' W 122°13'0 0.0
2015-May-21 16:30N 47°40' W 122°13'0 0.0
2015-May-21 15:07N 47°40' W 122°13'0 0.0
2015-May-21 14:32N 47°40' W 122°13'0 0.0
2015-May-21 13:41N 47°40' W 122°13'0 0.0
2015-May-21 13:32N 47°40' W 122°13'0 0.0
2015-May-21 12:27N 47°40' W 122°13'0 0.0
2015-May-21 11:31N 47°40' W 122°13'0 0.0
2015-May-21 10:31N 47°40' W 122°13'0 0.0
2015-May-21 09:29N 47°40' W 122°13'0 0.0
2015-May-21 08:30N 47°40' W 122°13'0 0.0
2015-May-21 08:15N 47°40' W 122°13'0 0.0
2015-May-21 07:30N 47°40' W 122°13'0 0.0
2015-May-21 06:31N 47°40' W 122°13'0 0.0
2015-May-21 05:26N 47°40' W 122°13'0 0.0
2015-May-21 04:26N 47°40' W 122°13'0 0.0
2015-May-21 03:15N 47°40' W 122°13'0 0.0
2015-May-21 02:28N 47°40' W 122°13'0 0.0
2015-May-21 01:37N 47°40' W 122°13'0 0.0
2015-May-21 01:22N 47°40' W 122°13'0 0.0
2015-May-21 00:29N 47°40' W 122°13'0 0.0
2015-May-20 23:24N 47°40' W 122°13'0 0.0
2015-May-20 22:30N 47°40' W 122°13'0 0.0
2015-May-20 21:19N 47°40' W 122°13'0 0.6
2015-May-20 20:33N 47°40' W 122°13'3 9.0
2015-May-20 20:15N 47°39' W 122°17'4 4.7
2015-May-20 19:27N 47°39' W 122°22'0 0.0
2015-May-20 19:15N 47°39' W 122°22'0 0.0
2015-May-20 18:31N 47°39' W 122°22'0 0.0
2015-May-20 18:04N 47°39' W 122°22'0 0.0
2015-May-20 17:16N 47°39' W 122°22'0 0.0
2015-May-20 17:13N 47°39' W 122°22'1 2.2
2015-May-20 16:33N 47°39' W 122°20'0 3.9
2015-May-20 16:33N 47°39' W 122°20'6 5.4
2015-May-20 15:32N 47°40' W 122°13'0 0.0
2015-May-20 14:27N 47°40' W 122°13'0 0.0
2015-May-20 13:57N 47°40' W 122°13'0 0.0
2015-May-20 13:22N 47°40' W 122°13'0 0.0
2015-May-20 12:17N 47°40' W 122°13'0 0.0
2015-May-20 11:29N 47°40' W 122°13'0 0.0
2015-May-20 10:30N 47°40' W 122°13'0 0.0
2015-May-20 09:30N 47°40' W 122°13'0 0.0
2015-May-20 08:31N 47°40' W 122°13'0 0.0
2015-May-20 07:32N 47°40' W 122°13'0 0.0
2015-May-20 06:38N 47°40' W 122°13'0 0.0
2015-May-20 06:26N 47°40' W 122°13'0 0.0
2015-May-20 05:33N 47°40' W 122°13'0 0.0
2015-May-20 05:18N 47°40' W 122°13'0 0.0
2015-May-20 04:28N 47°40' W 122°13'0 0.0
2015-May-20 03:37N 47°40' W 122°13'0 0.0
2015-May-20 03:28N 47°40' W 122°13'0 0.0
2015-May-20 02:11N 47°40' W 122°13'0 0.0
2015-May-20 01:30N 47°40' W 122°13'0 0.0
2015-May-20 00:30N 47°40' W 122°13'0 0.0
2015-May-19 23:31N 47°40' W 122°13'0 0.0
2015-May-19 22:26N 47°40' W 122°13'0 0.0
2015-May-19 21:32N 47°40' W 122°13'0 0.0
2015-May-19 20:27N 47°40' W 122°13'0 0.0
2015-May-19 19:28N 47°40' W 122°13'0 0.0
2015-May-19 18:28N 47°40' W 122°13'0 0.0
2015-May-19 17:17N 47°40' W 122°13'0 0.0
2015-May-19 16:30N 47°40' W 122°13'0 0.0
2015-May-19 15:24N 47°40' W 122°13'0 0.0
2015-May-19 14:31N 47°40' W 122°13'0 0.0
2015-May-19 12:15N 47°40' W 122°13'0 0.0
2015-May-19 11:27N 47°40' W 122°13'0 0.0
2015-May-19 10:25N 47°40' W 122°13'0 0.0
2015-May-19 09:17N 47°40' W 122°13'0 0.0
2015-May-19 08:29N 47°40' W 122°13'0 0.0
2015-May-19 08:14N 47°40' W 122°13'0 0.0
2015-May-19 07:30N 47°40' W 122°13'0 0.0
2015-May-19 07:09N 47°40' W 122°13'0 0.0
2015-May-19 06:24N 47°40' W 122°13'0 0.0
2015-May-19 05:25N 47°40' W 122°13'0 0.0
2015-May-19 04:32N 47°40' W 122°13'0 0.0
2015-May-19 04:23N 47°40' W 122°13'0 0.0
2015-May-19 02:36N 47°40' W 122°13'0 0.0
2015-May-19 02:27N 47°40' W 122°13'0 0.0
2015-May-19 01:28N 47°40' W 122°13'0 0.0
2015-May-19 00:55N 47°40' W 122°13'0 0.0
2015-May-19 00:28N 47°40' W 122°13'0 0.0
2015-May-18 23:23N 47°40' W 122°13'0 0.0
2015-May-18 23:20N 47°40' W 122°13'0 0.0
2015-May-18 22:30N 47°40' W 122°13'0 0.0
2015-May-18 20:31N 47°40' W 122°13'0 0.0
2015-May-18 19:32N 47°40' W 122°13'0 0.0
2015-May-18 18:21N 47°40' W 122°13'0 0.0
2015-May-18 17:27N 47°40' W 122°13'0 0.0
2015-May-18 16:28N 47°40' W 122°13'0 0.0
2015-May-18 15:11N 47°40' W 122°13'0 0.0
2015-May-18 14:23N 47°40' W 122°13'0 0.0
2015-May-18 13:24N 47°40' W 122°13'0 0.0
2015-May-18 12:07N 47°40' W 122°13'0 0.0
2015-May-18 11:31N 47°40' W 122°13'0 0.0
2015-May-18 09:32N 47°40' W 122°13'0 0.0
2015-May-18 08:33N 47°40' W 122°13'0 0.0
2015-May-18 07:28N 47°40' W 122°13'0 0.0
2015-May-18 06:28N 47°40' W 122°13'0 0.0
2015-May-18 04:30N 47°40' W 122°13'0 0.0
2015-May-18 03:13N 47°40' W 122°13'0 0.0
2015-May-18 02:13N 47°40' W 122°13'0 0.0
2015-May-18 01:08N 47°40' W 122°13'0 0.0
2015-May-18 00:32N 47°40' W 122°13'0 0.0
2015-May-17 23:15N 47°40' W 122°13'0 0.0
2015-May-17 22:28N 47°40' W 122°13'0 0.0
2015-May-17 21:02N 47°40' W 122°13'0 0.0
2015-May-17 20:29N 47°40' W 122°13'0 0.0
2015-May-17 19:12N 47°40' W 122°13'0 0.0
2015-May-17 18:25N 47°40' W 122°13'0 0.0
2015-May-17 17:31N 47°40' W 122°13'0 0.0
2015-May-17 15:59N 47°40' W 122°13'0 0.0
2015-May-17 15:32N 47°40' W 122°13'0 0.0
2015-May-17 14:15N 47°40' W 122°13'0 0.0
2015-May-17 13:10N 47°40' W 122°13'0 0.0
2015-May-17 12:46N 47°40' W 122°13'0 0.0
2015-May-17 12:31N 47°40' W 122°13'0 0.0
2015-May-17 12:23N 47°40' W 122°13'0 0.0
2015-May-17 11:29N 47°40' W 122°13'0 0.0
2015-May-17 10:18N 47°40' W 122°13'0 0.0
2015-May-17 09:25N 47°40' W 122°13'0 0.0
2015-May-17 08:19N 47°40' W 122°13'0 0.2
2015-May-17 07:33N 47°40' W 122°13'5 6.5
2015-May-17 06:43N 47°38' W 122°20'0 0.2
2015-May-17 05:48N 47°38' W 122°20'3 4.0
2015-May-17 05:09N 47°39' W 122°16'2 3.8
2015-May-17 04:30N 47°37' W 122°14'1 6.9
2015-May-17 04:23N 47°37' W 122°15'4 4.3
2015-May-17 03:33N 47°38' W 122°20'0 5.6
2015-May-17 03:32N 47°38' W 122°20'0 0.4
2015-May-17 02:23N 47°38' W 122°20'0 0.0
2015-May-17 02:11N 47°38' W 122°20'0 0.0
2015-May-17 01:00N 47°38' W 122°20'0 0.0
2015-May-16 20:30N 47°38' W 122°20'1 0.7
2015-May-16 19:43N 47°38' W 122°20'1 4.0
2015-May-16 19:33N 47°39' W 122°20'0 5.4
2015-May-16 19:33N 47°39' W 122°20'4 3.7
2015-May-16 18:33N 47°40' W 122°25'0 7.5
2015-May-16 18:33N 47°41' W 122°25'5 5.5
2015-May-16 17:34N 47°35' W 122°22'0 4.2
2015-May-16 17:33N 47°35' W 122°22'1 1.2
2015-May-16 16:30N 47°37' W 122°21'0 0.0
2015-May-16 15:30N 47°37' W 122°21'0 0.0
2015-May-16 15:00N 47°37' W 122°21'3 6.8
2015-May-16 14:33N 47°38' W 122°25'0 8.3
2015-May-16 14:29N 47°38' W 122°25'2 2.0
2015-May-16 13:30N 47°40' W 122°24'0 0.0
2015-May-16 13:29N 47°40' W 122°24'5 5.6
2015-May-16 12:31N 47°39' W 122°15'1 8.7
2015-May-16 12:24N 47°40' W 122°14'1 1.4
2015-May-16 11:30N 47°40' W 122°13'0 0.0
2015-May-16 10:30N 47°40' W 122°13'0 0.0
2015-May-16 09:19N 47°40' W 122°13'0 0.0
2015-May-16 08:26N 47°40' W 122°13'0 0.0
2015-May-16 07:26N 47°40' W 122°13'0 0.0
2015-May-16 06:33N 47°40' W 122°13'0 0.0
2015-May-16 04:28N 47°40' W 122°13'0 0.0
2015-May-16 03:17N 47°40' W 122°13'0 0.0
2015-May-16 01:18N 47°40' W 122°13'0 0.0
2015-May-16 00:19N 47°40' W 122°13'0 0.0
2015-May-15 23:26N 47°40' W 122°13'0 0.0
2015-May-15 22:32N 47°40' W 122°13'0 0.0
2015-May-15 21:33N 47°40' W 122°13'0 0.0
2015-May-15 20:22N 47°40' W 122°13'0 0.0
2015-May-15 19:11N 47°40' W 122°13'0 0.0
2015-May-15 18:17N 47°40' W 122°13'0 0.0
2015-May-15 17:12N 47°40' W 122°13'0 0.0
2015-May-15 16:30N 47°40' W 122°13'0 0.0
2015-May-15 15:07N 47°40' W 122°13'0 0.0
2015-May-15 14:14N 47°40' W 122°13'0 0.0
2015-May-15 13:32N 47°40' W 122°13'0 0.0
2015-May-15 12:21N 47°40' W 122°13'0 0.0
2015-May-15 11:22N 47°40' W 122°13'0 0.0
2015-May-15 10:05N 47°40' W 122°13'0 0.0
2015-May-15 09:29N 47°40' W 122°13'0 0.0
2015-May-15 08:30N 47°40' W 122°13'0 0.0
2015-May-15 07:18N 47°40' W 122°13'0 0.0
2015-May-15 06:19N 47°40' W 122°13'0 0.0
2015-May-15 05:08N 47°40' W 122°13'0 0.0
2015-May-15 04:32N 47°40' W 122°13'0 0.0
2015-May-15 03:33N 47°40' W 122°13'0 0.0
2015-May-15 02:22N 47°40' W 122°13'0 0.0
2015-May-15 01:22N 47°40' W 122°13'0 0.0
2015-May-15 00:29N 47°40' W 122°13'  
Track history (hours):
 
Tides and Currents Weather Stations Pressure Air Temp Water Temp Dewpoint Dewpoint Depression Visibility Wind Speed Wind Dir Waves Ship Positions

Lady Mary

Owner: BLACKMAN, JOHN H, SEATTLE, WA. More information available from US FCC via Universal Licensing System and Coast Guard Vessel Documentation Center.

Last reported at 2015-May-25 00:21 UTC. Time now 2015-May-25 01:25 UTC.
Position N 47°40' W 122°13'.

Length 26 m.

Type: Passenger vessel. MMSI: 367013060.

Date/timePositionNaut miles runAvg speedWind from/ knotsBaromVisibWave heightAir tempDewpointWater temp
2015-May-25 00:21N 47°40' W 122°13'1 1.6
2015-May-24 23:53N 47°40' W 122°13'3 7.8
2015-May-24 23:33N 47°38' W 122°16'1 7.8
2015-May-24 23:28N 47°38' W 122°16'4 3.7
2015-May-24 22:30N 47°40' W 122°13'0 0.2
2015-May-24 21:58N 47°40' W 122°13'3 7.6
2015-May-24 21:32N 47°38' W 122°16'1 8.2
2015-May-24 21:27N 47°38' W 122°16'4 3.6
2015-May-24 20:27N 47°40' W 122°13'0 0.0
2015-May-24 19:33N 47°40' W 122°13'0 0.0
2015-May-24 18:22N 47°40' W 122°13'0 0.0
2015-May-24 17:23N 47°40' W 122°13'0 0.0
2015-May-24 16:29N 47°40' W 122°13'0 0.0
2015-May-24 15:18N 47°40' W 122°13'0 0.0
2015-May-24 14:19N 47°40' W 122°13'0 0.0
2015-May-24 13:31N 47°40' W 122°13'0 0.0
2015-May-24 13:19N 47°40' W 122°13'0 0.0
2015-May-24 12:32N 47°40' W 122°13'0 0.0
2015-May-24 11:33N 47°40' W 122°13'0 0.0
2015-May-24 10:21N 47°40' W 122°13'0 0.0
2015-May-24 09:28N 47°40' W 122°13'0 0.0
2015-May-24 08:23N 47°40' W 122°13'0 0.0
2015-May-24 07:29N 47°40' W 122°13'1 1.8
2015-May-24 06:42N 47°40' W 122°14'2 8.3
2015-May-24 06:29N 47°39' W 122°17'0 7.1
2015-May-24 06:27N 47°39' W 122°17'2 5.8
2015-May-24 06:07N 47°39' W 122°20'2 1.1
2015-May-24 04:23N 47°39' W 122°17'0 0.0
2015-May-24 04:22N 47°39' W 122°17'4 4.6
2015-May-24 03:33N 47°36' W 122°14'0 4.8
2015-May-24 03:32N 47°36' W 122°14'3 2.8
2015-May-24 02:33N 47°39' W 122°15'0 5.3
2015-May-24 02:31N 47°39' W 122°15'4 3.8
2015-May-24 01:34N 47°38' W 122°20'0 4.0
2015-May-24 01:31N 47°38' W 122°20'1 0.6
2015-May-24 00:23N 47°38' W 122°20'0 0.0
2015-May-23 23:33N 47°38' W 122°20'0 2.5
2015-May-23 23:31N 47°38' W 122°20'6 6.0
2015-May-23 22:33N 47°40' W 122°13'0 0.1
2015-May-23 22:05N 47°40' W 122°13'3 6.6
2015-May-23 21:33N 47°38' W 122°16'1 8.4
2015-May-23 21:24N 47°37' W 122°15'4 3.3
2015-May-23 20:14N 47°40' W 122°13'0 0.0
2015-May-23 18:33N 47°40' W 122°13'0 0.0
2015-May-23 17:22N 47°40' W 122°13'0 0.0
2015-May-23 16:29N 47°40' W 122°13'0 0.0
2015-May-23 15:12N 47°40' W 122°13'0 0.0
2015-May-23 14:12N 47°40' W 122°13'0 0.0
2015-May-23 13:31N 47°40' W 122°13'0 0.0
2015-May-23 12:31N 47°40' W 122°13'0 0.0
2015-May-23 11:44N 47°40' W 122°13'0 0.0
2015-May-23 11:26N 47°40' W 122°13'0 0.0
2015-May-23 10:33N 47°40' W 122°13'0 0.0
2015-May-23 09:33N 47°40' W 122°13'0 0.0
2015-May-23 08:22N 47°40' W 122°13'0 0.0
2015-May-23 06:24N 47°40' W 122°13'0 0.0
2015-May-23 05:30N 47°40' W 122°13'0 0.0
2015-May-23 04:19N 47°40' W 122°13'0 0.0
2015-May-23 03:14N 47°40' W 122°13'0 0.0
2015-May-23 01:33N 47°40' W 122°13'0 0.0
2015-May-23 00:33N 47°40' W 122°13'0 0.0
2015-May-22 22:20N 47°40' W 122°13'0 0.0
2015-May-22 21:38N 47°40' W 122°13'0 1.3
2015-May-22 21:33N 47°40' W 122°13'0 0.1
2015-May-22 20:33N 47°40' W 122°13'0 0.0
2015-May-22 19:28N 47°40' W 122°13'0 0.0
2015-May-22 18:37N 47°40' W 122°13'0 0.0
2015-May-22 18:28N 47°40' W 122°13'0 0.0
2015-May-22 17:26N 47°40' W 122°13'0 0.0
2015-May-22 16:30N 47°40' W 122°13'0 0.0
2015-May-22 15:30N 47°40' W 122°13'0 0.0
2015-May-22 14:31N 47°40' W 122°13'0 0.0
2015-May-22 13:58N 47°40' W 122°13'0 0.0
2015-May-22 13:08N 47°40' W 122°13'0 0.0
2015-May-22 12:32N 47°40' W 122°13'0 0.0
2015-May-22 11:27N 47°40' W 122°13'0 0.0
2015-May-22 10:28N 47°40' W 122°13'0 0.0
2015-May-22 09:28N 47°40' W 122°13'0 0.0
2015-May-22 08:32N 47°40' W 122°13'0 0.0
2015-May-22 07:30N 47°40' W 122°13'0 0.0
2015-May-22 06:24N 47°40' W 122°13'0 0.0
2015-May-22 05:25N 47°40' W 122°13'2 2.6
2015-May-22 04:33N 47°39' W 122°15'1 7.3
2015-May-22 04:24N 47°39' W 122°17'2 1.9
2015-May-22 03:33N 47°39' W 122°19'0 0.0
2015-May-22 03:33N 47°39' W 122°19'4 3.8
2015-May-22 02:33N 47°37' W 122°15'010.8
2015-May-22 02:33N 47°37' W 122°15'4 3.0
2015-May-22 01:20N 47°40' W 122°13'0 0.0
2015-May-22 00:27N 47°40' W 122°13'0 0.0
2015-May-21 23:12N 47°40' W 122°13'0 0.9
2015-May-21 22:50N 47°40' W 122°13'3 7.9
2015-May-21 22:30N 47°39' W 122°16'0 6.7
2015-May-21 22:26N 47°39' W 122°17'0 0.5
2015-May-21 21:28N 47°39' W 122°16'2 4.7
2015-May-21 21:00N 47°37' W 122°14'3 5.8
2015-May-21 20:33N 47°39' W 122°13'1 0.6
2015-May-21 18:29N 47°40' W 122°13'0 0.0
2015-May-21 17:18N 47°40' W 122°13'0 0.0
2015-May-21 16:30N 47°40' W 122°13'0 0.0
2015-May-21 15:07N 47°40' W 122°13'0 0.0
2015-May-21 14:32N 47°40' W 122°13'0 0.0
2015-May-21 13:41N 47°40' W 122°13'0 0.0
2015-May-21 13:32N 47°40' W 122°13'0 0.0
2015-May-21 12:27N 47°40' W 122°13'0 0.0
2015-May-21 11:31N 47°40' W 122°13'0 0.0
2015-May-21 10:31N 47°40' W 122°13'0 0.0
2015-May-21 09:29N 47°40' W 122°13'0 0.0
2015-May-21 08:30N 47°40' W 122°13'0 0.0
2015-May-21 08:15N 47°40' W 122°13'0 0.0
2015-May-21 07:30N 47°40' W 122°13'0 0.0
2015-May-21 06:31N 47°40' W 122°13'0 0.0
2015-May-21 05:26N 47°40' W 122°13'0 0.0
2015-May-21 04:26N 47°40' W 122°13'0 0.0
2015-May-21 03:15N 47°40' W 122°13'0 0.0
2015-May-21 02:28N 47°40' W 122°13'0 0.0
2015-May-21 01:37N 47°40' W 122°13'0 0.0
2015-May-21 01:22N 47°40' W 122°13'0 0.0
2015-May-21 00:29N 47°40' W 122°13'0 0.0
2015-May-20 23:24N 47°40' W 122°13'0 0.0
2015-May-20 22:30N 47°40' W 122°13'0 0.0
2015-May-20 21:19N 47°40' W 122°13'0 0.6
2015-May-20 20:33N 47°40' W 122°13'3 9.0
2015-May-20 20:15N 47°39' W 122°17'4 4.7
2015-May-20 19:27N 47°39' W 122°22'0 0.0
2015-May-20 19:15N 47°39' W 122°22'0 0.0
2015-May-20 18:31N 47°39' W 122°22'0 0.0
2015-May-20 18:04N 47°39' W 122°22'0 0.0
2015-May-20 17:16N 47°39' W 122°22'0 0.0
2015-May-20 17:13N 47°39' W 122°22'1 2.2
2015-May-20 16:33N 47°39' W 122°20'0 3.9
2015-May-20 16:33N 47°39' W 122°20'6 5.4
2015-May-20 15:32N 47°40' W 122°13'0 0.0
2015-May-20 14:27N 47°40' W 122°13'0 0.0
2015-May-20 13:57N 47°40' W 122°13'0 0.0
2015-May-20 13:22N 47°40' W 122°13'0 0.0
2015-May-20 12:17N 47°40' W 122°13'0 0.0
2015-May-20 11:29N 47°40' W 122°13'0 0.0
2015-May-20 10:30N 47°40' W 122°13'0 0.0
2015-May-20 09:30N 47°40' W 122°13'0 0.0
2015-May-20 08:31N 47°40' W 122°13'0 0.0
2015-May-20 07:32N 47°40' W 122°13'0 0.0
2015-May-20 06:38N 47°40' W 122°13'0 0.0
2015-May-20 06:26N 47°40' W 122°13'0 0.0
2015-May-20 05:33N 47°40' W 122°13'0 0.0
2015-May-20 05:18N 47°40' W 122°13'0 0.0
2015-May-20 04:28N 47°40' W 122°13'0 0.0
2015-May-20 03:37N 47°40' W 122°13'0 0.0
2015-May-20 03:28N 47°40' W 122°13'0 0.0
2015-May-20 02:11N 47°40' W 122°13'0 0.0
2015-May-20 01:30N 47°40' W 122°13'0 0.0
2015-May-20 00:30N 47°40' W 122°13'0 0.0
2015-May-19 23:31N 47°40' W 122°13'0 0.0
2015-May-19 22:26N 47°40' W 122°13'0 0.0
2015-May-19 21:32N 47°40' W 122°13'0 0.0
2015-May-19 20:27N 47°40' W 122°13'0 0.0
2015-May-19 19:28N 47°40' W 122°13'0 0.0
2015-May-19 18:28N 47°40' W 122°13'0 0.0
2015-May-19 17:17N 47°40' W 122°13'0 0.0
2015-May-19 16:30N 47°40' W 122°13'0 0.0
2015-May-19 15:24N 47°40' W 122°13'0 0.0
2015-May-19 14:31N 47°40' W 122°13'0 0.0
2015-May-19 12:15N 47°40' W 122°13'0 0.0
2015-May-19 11:27N 47°40' W 122°13'0 0.0
2015-May-19 10:25N 47°40' W 122°13'0 0.0
2015-May-19 09:17N 47°40' W 122°13'0 0.0
2015-May-19 08:29N 47°40' W 122°13'0 0.0
2015-May-19 08:14N 47°40' W 122°13'0 0.0
2015-May-19 07:30N 47°40' W 122°13'0 0.0
2015-May-19 07:09N 47°40' W 122°13'0 0.0
2015-May-19 06:24N 47°40' W 122°13'0 0.0
2015-May-19 05:25N 47°40' W 122°13'0 0.0
2015-May-19 04:32N 47°40' W 122°13'0 0.0
2015-May-19 04:23N 47°40' W 122°13'0 0.0
2015-May-19 02:36N 47°40' W 122°13'0 0.0
2015-May-19 02:27N 47°40' W 122°13'0 0.0
2015-May-19 01:28N 47°40' W 122°13'0 0.0
2015-May-19 00:55N 47°40' W 122°13'0 0.0
2015-May-19 00:28N 47°40' W 122°13'0 0.0
2015-May-18 23:23N 47°40' W 122°13'0 0.0
2015-May-18 23:20N 47°40' W 122°13'0 0.0
2015-May-18 22:30N 47°40' W 122°13'0 0.0
2015-May-18 20:31N 47°40' W 122°13'0 0.0
2015-May-18 19:32N 47°40' W 122°13'0 0.0
2015-May-18 18:21N 47°40' W 122°13'0 0.0
2015-May-18 17:27N 47°40' W 122°13'0 0.0
2015-May-18 16:28N 47°40' W 122°13'0 0.0
2015-May-18 15:11N 47°40' W 122°13'0 0.0
2015-May-18 14:23N 47°40' W 122°13'0 0.0
2015-May-18 13:24N 47°40' W 122°13'0 0.0
2015-May-18 12:07N 47°40' W 122°13'0 0.0
2015-May-18 11:31N 47°40' W 122°13'0 0.0
2015-May-18 09:32N 47°40' W 122°13'0 0.0
2015-May-18 08:33N 47°40' W 122°13'0 0.0
2015-May-18 07:28N 47°40' W 122°13'0 0.0
2015-May-18 06:28N 47°40' W 122°13'0 0.0
2015-May-18 04:30N 47°40' W 122°13'0 0.0
2015-May-18 03:13N 47°40' W 122°13'0 0.0
2015-May-18 02:13N 47°40' W 122°13'0 0.0
2015-May-18 01:08N 47°40' W 122°13'0 0.0
2015-May-18 00:32N 47°40' W 122°13'0 0.0
2015-May-17 23:15N 47°40' W 122°13'0 0.0
2015-May-17 22:28N 47°40' W 122°13'0 0.0
2015-May-17 21:02N 47°40' W 122°13'0 0.0
2015-May-17 20:29N 47°40' W 122°13'0 0.0
2015-May-17 19:12N 47°40' W 122°13'0 0.0
2015-May-17 18:25N 47°40' W 122°13'0 0.0
2015-May-17 17:31N 47°40' W 122°13'0 0.0
2015-May-17 15:59N 47°40' W 122°13'0 0.0
2015-May-17 15:32N 47°40' W 122°13'0 0.0
2015-May-17 14:15N 47°40' W 122°13'0 0.0
2015-May-17 13:10N 47°40' W 122°13'0 0.0
2015-May-17 12:46N 47°40' W 122°13'0 0.0
2015-May-17 12:31N 47°40' W 122°13'0 0.0
2015-May-17 12:23N 47°40' W 122°13'0 0.0
2015-May-17 11:29N 47°40' W 122°13'0 0.0
2015-May-17 10:18N 47°40' W 122°13'0 0.0
2015-May-17 09:25N 47°40' W 122°13'0 0.0
2015-May-17 08:19N 47°40' W 122°13'0 0.2
2015-May-17 07:33N 47°40' W 122°13'5 6.5
2015-May-17 06:43N 47°38' W 122°20'0 0.2
2015-May-17 05:48N 47°38' W 122°20'3 4.0
2015-May-17 05:09N 47°39' W 122°16'2 3.8
2015-May-17 04:30N 47°37' W 122°14'1 6.9
2015-May-17 04:23N 47°37' W 122°15'4 4.3
2015-May-17 03:33N 47°38' W 122°20'0 5.6
2015-May-17 03:32N 47°38' W 122°20'0 0.4
2015-May-17 02:23N 47°38' W 122°20'0 0.0
2015-May-17 02:11N 47°38' W 122°20'0 0.0
2015-May-17 01:00N 47°38' W 122°20'0 0.0
2015-May-16 20:30N 47°38' W 122°20'1 0.7
2015-May-16 19:43N 47°38' W 122°20'1 4.0
2015-May-16 19:33N 47°39' W 122°20'0 5.4
2015-May-16 19:33N 47°39' W 122°20'4 3.7
2015-May-16 18:33N 47°40' W 122°25'0 7.5
2015-May-16 18:33N 47°41' W 122°25'5 5.5
2015-May-16 17:34N 47°35' W 122°22'0 4.2
2015-May-16 17:33N 47°35' W 122°22'1 1.2
2015-May-16 16:30N 47°37' W 122°21'0 0.0
2015-May-16 15:30N 47°37' W 122°21'0 0.0
2015-May-16 15:00N 47°37' W 122°21'3 6.8
2015-May-16 14:33N 47°38' W 122°25'0 8.3
2015-May-16 14:29N 47°38' W 122°25'2 2.0
2015-May-16 13:30N 47°40' W 122°24'0 0.0
2015-May-16 13:29N 47°40' W 122°24'5 5.6
2015-May-16 12:31N 47°39' W 122°15'1 8.7
2015-May-16 12:24N 47°40' W 122°14'1 1.4
2015-May-16 11:30N 47°40' W 122°13'0 0.0
2015-May-16 10:30N 47°40' W 122°13'0 0.0
2015-May-16 09:19N 47°40' W 122°13'0 0.0
2015-May-16 08:26N 47°40' W 122°13'0 0.0
2015-May-16 07:26N 47°40' W 122°13'0 0.0
2015-May-16 06:33N 47°40' W 122°13'0 0.0
2015-May-16 04:28N 47°40' W 122°13'0 0.0
2015-May-16 03:17N 47°40' W 122°13'0 0.0
2015-May-16 01:18N 47°40' W 122°13'0 0.0
2015-May-16 00:19N 47°40' W 122°13'0 0.0
2015-May-15 23:26N 47°40' W 122°13'0 0.0
2015-May-15 22:32N 47°40' W 122°13'0 0.0
2015-May-15 21:33N 47°40' W 122°13'0 0.0
2015-May-15 20:22N 47°40' W 122°13'0 0.0
2015-May-15 19:11N 47°40' W 122°13'0 0.0
2015-May-15 18:17N 47°40' W 122°13'0 0.0
2015-May-15 17:12N 47°40' W 122°13'0 0.0
2015-May-15 16:30N 47°40' W 122°13'0 0.0
2015-May-15 15:07N 47°40' W 122°13'0 0.0
2015-May-15 14:14N 47°40' W 122°13'0 0.0
2015-May-15 13:32N 47°40' W 122°13'0 0.0
2015-May-15 12:21N 47°40' W 122°13'0 0.0
2015-May-15 11:22N 47°40' W 122°13'0 0.0
2015-May-15 10:05N 47°40' W 122°13'0 0.0
2015-May-15 09:29N 47°40' W 122°13'0 0.0
2015-May-15 08:30N 47°40' W 122°13'0 0.0
2015-May-15 07:18N 47°40' W 122°13'0 0.0
2015-May-15 06:19N 47°40' W 122°13'0 0.0
2015-May-15 05:08N 47°40' W 122°13'0 0.0
2015-May-15 04:32N 47°40' W 122°13'0 0.0
2015-May-15 03:33N 47°40' W 122°13'0 0.0
2015-May-15 02:22N 47°40' W 122°13'0 0.0
2015-May-15 01:22N 47°40' W 122°13'0 0.0
2015-May-15 00:29N 47°40' W 122°13'  

Dump ship's entire track history